Time;durP1;ratioP1;P1;durP2;ratioP2;P2;SDS_P1;SDS_P2;PMS_P1;PMS_P2;Temp;Humidity;BMP_temperature;BMP_pressure;BME280_temperature;BME280_humidity;BME280_pressure;Samples;Min_cycle;Max_cycle;Signal;HPM_P1;HPM_P2
2021/09/16 00:01:39;;;;;;;5.65;2.90;;;17.50;99.90;;;18.00;73.39;101469.13;5095627;28;20492;-78
2021/09/16 00:04:07;;;;;;;7.45;3.60;;;17.60;99.90;;;17.43;73.59;101402.75;5113931;28;20035;-78
2021/09/16 00:06:36;;;;;;;6.93;4.10;;;17.50;99.90;;;17.95;73.66;101464.81;5113683;28;20073;-78
2021/09/16 00:09:04;;;;;;;8.15;3.95;;;17.60;99.90;;;17.26;73.79;101371.06;5113577;28;20478;-77
2021/09/16 00:11:33;;;;;;;6.10;3.28;;;17.50;99.90;;;17.81;73.66;101466.94;5113539;28;20039;-78
2021/09/16 00:14:01;;;;;;;7.75;3.67;;;17.50;99.90;;;17.80;73.60;101451.81;5114129;28;20130;-78
2021/09/16 00:16:29;;;;;;;8.05;3.72;;;17.50;99.90;;;17.88;73.71;101473.94;5113696;28;20048;-78
2021/09/16 00:18:59;;;;;;;4.20;3.30;;;17.50;99.90;;;17.94;73.54;101463.06;5113507;28;20382;-78
2021/09/16 00:21:28;;;;;;;7.35;3.83;;;17.50;99.90;;;17.68;73.64;101444.09;5113768;28;20093;-78
2021/09/16 00:23:56;;;;;;;9.15;4.05;;;17.50;99.90;;;17.88;73.45;101465.91;5113716;28;20142;-78
2021/09/16 00:26:24;;;;;;;5.88;3.20;;;17.60;99.90;;;17.91;73.17;101469.38;5113695;28;20130;-77
2021/09/16 00:28:53;;;;;;;12.00;3.10;;;17.60;99.90;;;17.91;73.10;101466.69;5095453;28;20044;-77
2021/09/16 00:31:21;;;;;;;13.27;3.90;;;17.60;99.90;;;17.88;73.02;101480.16;5113676;28;20047;-78
2021/09/16 00:33:50;;;;;;;3.97;3.25;;;17.70;99.90;;;17.90;73.42;101466.75;5113600;28;20058;-77
2021/09/16 00:36:20;;;;;;;8.25;4.05;;;17.60;99.90;;;17.97;73.33;101468.34;5113156;28;20067;-78
2021/09/16 00:38:48;;;;;;;8.77;3.13;;;17.60;99.90;;;17.95;73.32;101464.81;5113810;28;20491;-78
2021/09/16 00:41:17;;;;;;;7.10;3.75;;;17.60;99.90;;;17.97;73.42;101468.34;5113473;28;20051;-78
2021/09/16 00:43:45;;;;;;;6.38;3.33;;;17.70;99.90;;;18.02;72.77;101472.66;5113215;28;20046;-78
2021/09/16 00:46:14;;;;;;;6.55;3.50;;;17.70;99.90;;;17.86;73.37;101462.38;5094876;28;20542;-77
2021/09/16 00:48:42;;;;;;;6.40;3.15;;;17.60;99.90;;;17.92;73.21;101472.94;5113307;28;20077;-78
2021/09/16 00:51:11;;;;;;;8.05;3.72;;;17.60;99.90;;;17.97;73.70;101466.53;5095211;28;20113;-78
2021/09/16 00:53:41;;;;;;;5.95;3.35;;;17.60;99.90;;;17.99;73.57;101472.75;5113488;28;20063;-78
2021/09/16 00:56:11;;;;;;;6.55;3.60;;;17.60;99.90;;;17.92;73.40;101471.13;5113406;28;20120;-78
2021/09/16 00:58:42;;;;;;;4.97;3.17;;;17.60;99.90;;;17.88;73.31;101474.81;5113804;28;20564;-78
2021/09/16 01:01:10;;;;;;;6.22;3.60;;;17.60;99.90;;;17.92;74.05;101479.16;5113106;28;20047;-78
2021/09/16 01:03:39;;;;;;;8.43;3.33;;;17.60;99.90;;;17.92;73.79;101470.25;5113194;28;20396;-78
2021/09/16 01:06:08;;;;;;;6.85;3.50;;;17.60;99.90;;;17.97;73.81;101479.94;5113054;28;20512;-78
2021/09/16 01:08:37;;;;;;;10.15;3.30;;;17.60;99.90;;;17.83;73.88;101473.13;5113039;28;20126;-78
2021/09/16 01:11:07;;;;;;;8.35;3.80;;;17.60;99.90;;;18.07;73.70;101480.56;5112825;28;20496;-78
2021/09/16 01:13:36;;;;;;;6.73;3.57;;;17.70;99.90;;;17.95;73.83;101479.09;5113351;28;20051;-78
2021/09/16 01:16:05;;;;;;;7.13;3.28;;;17.60;99.90;;;17.99;73.62;101455.78;5113320;28;20289;-78
2021/09/16 01:18:33;;;;;;;4.07;3.05;;;17.70;99.90;;;18.06;73.72;101481.47;5094923;28;20142;-78
2021/09/16 01:21:02;;;;;;;5.43;3.67;;;17.70;99.90;;;18.05;73.64;101487.75;5094897;28;20051;-78
2021/09/16 01:23:32;;;;;;;6.45;3.72;;;17.70;99.90;;;18.02;73.67;101482.50;5115463;28;20051;-78
2021/09/16 01:26:00;;;;;;;5.10;3.55;;;17.60;99.90;;;17.87;73.58;101472.16;5116568;28;20039;-78
2021/09/16 01:28:29;;;;;;;4.40;3.65;;;17.60;99.90;;;17.96;73.26;101470.13;5116607;28;20043;-77
2021/09/16 01:30:57;;;;;;;8.13;3.10;;;17.60;99.90;;;17.91;72.90;101466.69;5098451;28;20102;-78
2021/09/16 01:33:25;;;;;;;7.68;3.35;;;17.60;99.90;;;18.01;72.30;101467.34;5116505;28;20058;-78
2021/09/16 01:35:54;;;;;;;6.53;3.33;;;17.70;99.90;;;17.93;72.46;101469.31;5098309;28;20071;-78
2021/09/16 01:38:22;;;;;;;6.28;3.13;;;17.60;99.90;;;17.73;72.91;101447.53;5116275;28;20123;-78
2021/09/16 01:40:52;;;;;;;9.15;3.03;;;17.50;99.90;;;17.81;72.66;101466.94;5116512;28;20073;-78
2021/09/16 01:43:20;;;;;;;5.67;3.30;;;17.50;99.90;;;17.99;72.80;101471.84;5116290;28;20063;-78
2021/09/16 01:45:49;;;;;;;7.72;3.03;;;17.60;99.90;;;18.01;72.34;101467.34;5116578;28;20323;-77
2021/09/16 01:48:17;;;;;;;5.75;3.22;;;17.60;99.90;;;18.00;71.92;101458.41;5116558;28;20059;-77
2021/09/16 01:50:47;;;;;;;4.20;2.72;;;17.70;99.90;;;17.85;71.93;101447.22;5116141;28;20078;-78
2021/09/16 01:53:16;;;;;;;5.68;3.13;;;17.60;99.90;;;17.94;71.34;101466.59;5116188;28;20082;-78
2021/09/16 01:55:44;;;;;;;4.07;3.10;;;17.60;99.90;;;17.87;71.15;101466.81;5116066;28;20074;-78
2021/09/16 01:58:14;;;;;;;3.63;2.83;;;17.60;99.90;;;17.74;71.71;101471.59;5116126;28;20050;-78
2021/09/16 02:00:43;;;;;;;5.07;2.60;;;17.50;99.90;;;17.59;71.80;101465.72;5116334;28;20084;-77
2021/09/16 02:03:11;;;;;;;5.63;3.53;;;17.40;99.90;;;17.47;72.52;101465.97;5115866;28;20066;-78
2021/09/16 02:05:40;;;;;;;4.25;3.13;;;17.30;99.90;;;17.74;72.18;101478.72;5115932;28;20071;-78
2021/09/16 02:08:08;;;;;;;7.60;3.10;;;17.40;99.90;;;17.81;72.09;101483.00;5097827;28;20044;-78
2021/09/16 02:10:36;;;;;;;5.15;3.35;;;17.40;99.90;;;17.78;71.83;101480.41;5115753;28;20044;-78
2021/09/16 02:13:05;;;;;;;8.30;3.10;;;17.40;99.90;;;17.90;71.54;101496.19;5115637;28;20058;-78
2021/09/16 02:15:35;;;;;;;4.88;2.78;;;17.50;99.90;;;17.95;71.74;101480.88;5115972;28;20051;-78
2021/09/16 02:18:03;;;;;;;5.03;3.33;;;17.50;99.90;;;17.95;71.96;101479.09;5115591;28;20065;-78
2021/09/16 02:20:32;;;;;;;5.70;3.22;;;17.50;99.90;;;17.96;71.79;101482.66;5116143;28;20097;-77
2021/09/16 02:23:00;;;;;;;4.40;2.78;;;17.50;99.90;;;17.96;72.18;101478.16;5115473;28;20493;-77
2021/09/16 02:25:28;;;;;;;6.65;3.05;;;17.50;99.90;;;17.90;71.99;101477.44;5097233;28;20043;-78
2021/09/16 02:27:56;;;;;;;5.38;3.03;;;17.50;99.90;;;17.95;71.49;101499.63;5115665;28;20435;-77
2021/09/16 02:30:25;;;;;;;4.93;3.30;;;17.50;99.90;;;17.95;70.89;101478.19;5115347;28;20054;-77
2021/09/16 02:32:55;;;;;;;5.57;3.05;;;17.50;99.90;;;17.83;71.78;101494.56;5115578;28;20081;-78
2021/09/16 02:35:23;;;;;;;5.43;3.30;;;17.50;99.90;;;17.78;71.96;101489.34;5114255;28;20457;-78
2021/09/16 02:37:52;;;;;;;3.47;3.05;;;17.40;99.90;;;17.79;72.21;101485.72;5115174;28;20040;-78
2021/09/16 02:40:20;;;;;;;5.85;3.50;;;17.40;99.90;;;17.72;72.51;101491.25;5115214;28;20482;-77
2021/09/16 02:42:48;;;;;;;5.65;2.88;;;17.30;99.90;;;17.59;72.31;101466.59;5115474;28;20043;-77
2021/09/16 02:45:17;;;;;;;5.68;3.38;;;17.40;99.90;;;16.13;72.40;101200.00;5115340;28;20059;-77
2021/09/16 02:47:45;;;;;;;5.05;3.25;;;17.40;99.90;;;17.78;72.22;101489.34;5115205;28;20131;-77
2021/09/16 02:50:15;;;;;;;7.38;3.15;;;17.40;99.90;;;17.68;72.84;101478.88;5115255;28;20116;-77
2021/09/16 02:52:44;;;;;;;6.05;3.20;;;17.30;99.90;;;17.70;73.13;101485.97;5115068;28;20075;-77
2021/09/16 02:55:18;;;;;;;4.50;2.95;;;17.30;99.90;;;17.71;73.17;101481.50;5115165;28;20073;-77
2021/09/16 02:57:48;;;;;;;7.63;3.10;;;17.30;99.90;;;17.56;73.38;101463.97;5115071;28;20492;-77
2021/09/16 03:00:17;;;;;;;7.78;4.00;;;17.30;99.90;;;17.62;73.79;101487.94;5115090;28;20039;-77
2021/09/16 03:02:45;;;;;;;7.68;3.05;;;17.20;99.90;;;17.59;74.04;101461.25;5115147;28;20043;-77
2021/09/16 03:05:15;;;;;;;5.00;3.60;;;17.30;99.90;;;17.76;74.40;101498.31;5115031;28;20123;-78
2021/09/16 03:07:43;;;;;;;7.10;3.60;;;17.40;99.90;;;17.78;74.42;101501.81;5114970;28;20048;-77
2021/09/16 03:10:13;;;;;;;10.48;3.53;;;17.40;99.90;;;17.78;74.70;101501.81;5096632;28;20131;-77
2021/09/16 03:12:42;;;;;;;6.00;3.10;;;17.40;99.90;;;17.74;75.02;101500.13;5114673;28;20435;-77
2021/09/16 03:15:12;;;;;;;8.07;3.22;;;17.40;99.90;;;17.81;75.00;101505.31;5114442;28;20543;-77
2021/09/16 03:17:41;;;;;;;5.65;3.13;;;17.50;99.90;;;17.70;74.74;101482.38;5114529;28;20067;-77
2021/09/16 03:20:11;;;;;;;6.80;3.28;;;17.40;99.90;;;17.88;74.68;101506.94;5114710;28;20067;-78
2021/09/16 03:22:41;;;;;;;6.05;2.88;;;17.50;99.90;;;17.73;74.54;101495.72;5114457;28;20068;-77
2021/09/16 03:25:11;;;;;;;5.53;3.20;;;17.50;99.90;;;17.75;74.52;101499.25;5114761;28;20044;-77
2021/09/16 03:27:40;;;;;;;7.95;3.15;;;17.50;99.90;;;17.63;74.29;101491.50;5114437;28;20047;-77
2021/09/16 03:30:13;;;;;;;7.90;3.50;;;17.40;99.90;;;17.73;74.54;101509.09;5096312;28;20163;-77
2021/09/16 03:32:42;;;;;;;5.47;3.58;;;17.40;99.90;;;17.89;73.49;101513.16;5114576;28;20044;-77
2021/09/16 03:35:12;;;;;;;8.50;3.27;;;17.50;99.90;;;17.73;73.79;101511.78;5096211;28;20086;-78
2021/09/16 03:37:41;;;;;;;4.93;3.40;;;17.40;99.90;;;17.72;73.83;101512.66;5114030;28;20047;-77
2021/09/16 03:40:12;;;;;;;7.97;3.27;;;17.40;99.90;;;17.65;73.15;101484.31;5114485;28;20051;-78
2021/09/16 03:42:40;;;;;;;8.77;3.38;;;17.40;99.90;;;17.73;72.88;101507.28;5114441;28;20381;-78
2021/09/16 03:45:10;;;;;;;5.13;3.40;;;17.50;99.90;;;17.81;72.95;101499.94;5113973;28;20068;-78
2021/09/16 03:47:38;;;;;;;8.20;3.70;;;17.50;99.90;;;17.78;72.62;101515.22;5114196;28;20381;-77
2021/09/16 03:50:08;;;;;;;6.95;3.22;;;17.40;99.90;;;17.83;72.64;101514.19;5114237;28;20508;-78
2021/09/16 03:52:36;;;;;;;7.53;3.75;;;17.40;99.90;;;18.11;72.16;101522.44;5114169;28;20557;-77
2021/09/16 03:55:08;;;;;;;6.55;3.45;;;17.60;99.90;;;18.11;71.42;101524.22;5113842;28;20122;-77
2021/09/16 03:57:36;;;;;;;5.28;3.67;;;17.70;99.90;;;17.97;72.66;101516.53;5114054;28;20040;-77
2021/09/16 04:00:07;;;;;;;5.03;3.33;;;17.60;99.90;;;18.07;72.94;101523.41;5095754;28;20042;-77
2021/09/16 04:02:36;;;;;;;9.05;4.03;;;17.70;99.90;;;18.00;72.66;101500.41;5114013;28;20451;-77
2021/09/16 04:05:05;;;;;;;4.20;3.17;;;17.70;99.90;;;18.12;72.45;101509.94;5113949;28;20105;-77
2021/09/16 04:07:33;;;;;;;5.20;3.90;;;17.70;99.90;;;18.02;72.05;101509.28;5113940;28;20048;-75
2021/09/16 04:10:03;;;;;;;7.95;3.92;;;17.70;99.90;;;18.06;71.95;101504.72;5113926;28;20040;-78
2021/09/16 04:12:32;;;;;;;6.90;2.90;;;17.70;99.90;;;18.10;71.70;101515.28;5113598;28;20501;-81
2021/09/16 04:15:01;;;;;;;4.82;3.00;;;17.70;99.90;;;17.84;72.20;101488.31;5113829;28;20081;-81
2021/09/16 04:17:29;;;;;;;5.43;3.55;;;17.70;99.90;;;17.89;72.45;101515.81;5113529;28;20547;-80
2021/09/16 04:19:58;;;;;;;4.43;3.60;;;17.60;99.90;;;17.93;72.43;101525.53;5113547;28;20367;-77
2021/09/16 04:22:27;;;;;;;7.72;3.50;;;17.60;99.90;;;17.28;72.60;101437.88;5114118;28;20082;-78
2021/09/16 04:24:55;;;;;;;4.32;3.10;;;17.50;99.90;;;17.85;72.45;101511.47;5113899;28;20048;-80
2021/09/16 04:27:24;;;;;;;6.75;3.65;;;17.50;99.90;;;17.87;72.51;101525.69;5113431;28;20381;-80
2021/09/16 04:29:53;;;;;;;6.72;3.40;;;17.60;99.90;;;17.82;72.87;101525.81;5113739;28;20048;-81
2021/09/16 04:32:22;;;;;;;5.27;3.50;;;17.50;99.90;;;17.61;72.66;101498.66;5113459;28;20555;-81
2021/09/16 04:34:50;;;;;;;6.68;3.97;;;17.50;99.90;;;17.80;71.61;101518.72;5114025;28;20038;-81
2021/09/16 04:37:19;;;;;;;4.07;3.28;;;17.50;99.90;;;17.96;71.62;101525.50;5113440;28;20126;-81
2021/09/16 04:39:47;;;;;;;6.72;2.92;;;17.60;99.90;;;18.01;71.88;101528.91;5113600;28;20047;-81
2021/09/16 04:42:16;;;;;;;5.47;3.28;;;17.60;99.90;;;18.00;71.62;101529.84;5113383;28;20118;-80
2021/09/16 04:44:44;;;;;;;6.18;3.15;;;17.70;99.90;;;18.06;71.81;101518.97;5113380;28;20035;-80
2021/09/16 04:47:14;;;;;;;5.78;3.05;;;17.70;99.90;;;18.05;71.90;101514.53;5113568;28;20058;-81
2021/09/16 04:49:42;;;;;;;9.93;3.60;;;17.80;99.90;;;18.14;72.12;101519.66;5113355;28;20500;-81
2021/09/16 04:52:11;;;;;;;7.28;3.90;;;17.80;99.90;;;18.10;72.65;101526.00;5113365;28;20847;-80
2021/09/16 04:54:39;;;;;;;6.85;3.65;;;17.80;99.90;;;17.62;72.43;101433.53;5113658;28;20160;-81
2021/09/16 04:57:07;;;;;;;5.10;2.95;;;17.90;99.90;;;18.11;72.32;101534.94;5113334;28;20042;-82
2021/09/16 04:59:36;;;;;;;6.22;3.50;;;17.80;99.90;;;18.16;72.59;101523.19;5117408;28;20112;-82
2021/09/16 05:02:04;;;;;;;5.53;3.10;;;17.80;99.90;;;18.05;72.46;101533.28;5117729;28;20122;-83
2021/09/16 05:04:35;;;;;;;8.38;4.30;;;17.80;99.90;;;18.19;72.98;101517.78;5117091;28;20044;-82
2021/09/16 05:07:04;;;;;;;7.47;3.30;;;17.80;99.90;;;18.30;72.14;101534.44;5117339;28;20050;-82
2021/09/16 05:09:33;;;;;;;9.63;3.92;;;17.90;99.90;;;18.23;71.91;101532.84;5116994;28;20043;-82
2021/09/16 05:12:02;;;;;;;7.78;3.50;;;17.90;99.90;;;18.23;72.00;101537.31;5117449;28;20113;-81
2021/09/16 05:14:31;;;;;;;10.52;3.45;;;17.90;99.90;;;18.10;72.22;101528.69;5098842;28;20036;-81
2021/09/16 05:17:00;;;;;;;6.75;3.35;;;17.80;99.90;;;18.11;72.34;101529.56;5098801;28;20408;-82
2021/09/16 05:19:29;;;;;;;6.90;3.55;;;17.80;99.90;;;18.11;72.52;101534.94;5116716;28;20089;-82
2021/09/16 05:21:59;;;;;;;10.40;3.42;;;17.70;99.90;;;18.00;72.23;101492.38;5117044;28;20050;-82
2021/09/16 05:24:28;;;;;;;7.57;3.35;;;17.80;99.90;;;18.31;72.54;101532.66;5117094;28;20036;-82
2021/09/16 05:26:57;;;;;;;9.02;3.58;;;17.90;99.90;;;18.27;72.56;101547.03;5116560;28;20031;-81
2021/09/16 05:29:26;;;;;;;7.97;3.55;;;17.90;99.90;;;18.20;72.79;101548.97;5116727;28;20070;-81
2021/09/16 05:31:55;;;;;;;6.80;3.30;;;17.90;99.90;;;18.18;73.33;101539.19;5116683;28;20032;-82
2021/09/16 05:34:24;;;;;;;7.85;3.55;;;17.90;99.90;;;18.24;72.63;101552.44;5116489;28;20039;-82
2021/09/16 05:36:53;;;;;;;8.75;4.07;;;17.80;99.90;;;18.10;73.42;101558.13;5116629;28;20051;-82
2021/09/16 05:39:24;;;;;;;7.32;3.42;;;17.80;99.90;;;18.23;73.08;101567.66;5116337;28;20046;-85
2021/09/16 05:41:53;;;;;;;12.25;3.53;;;17.80;99.90;;;18.11;73.63;101557.25;5116741;28;20524;-83
2021/09/16 05:44:21;;;;;;;10.30;3.92;;;17.80;99.90;;;18.16;73.43;101566.03;5116329;28;21272;-82
2021/09/16 05:46:50;;;;;;;6.55;3.42;;;17.80;99.90;;;17.95;73.63;101550.47;5116362;28;20043;-84
2021/09/16 05:49:19;;;;;;;9.30;4.03;;;17.80;99.90;;;18.18;73.63;101569.56;5116082;28;20048;-81
2021/09/16 05:51:49;;;;;;;7.47;3.58;;;17.80;99.90;;;18.10;73.77;101571.53;5116104;28;20052;-81
2021/09/16 05:54:18;;;;;;;9.13;3.53;;;17.70;99.90;;;18.21;73.90;101579.31;5116279;28;20040;-81
2021/09/16 05:56:49;;;;;;;7.50;3.45;;;17.80;99.90;;;18.07;73.33;101542.16;5116051;28;20035;-81
2021/09/16 05:59:17;;;;;;;6.82;3.33;;;17.80;99.90;;;18.26;73.36;101575.59;5116503;28;20036;-83
2021/09/16 06:01:46;;;;;;;5.68;3.38;;;17.90;99.90;;;18.27;73.13;101549.72;5116495;28;20081;-82
2021/09/16 06:04:15;;;;;;;6.50;3.78;;;18.00;99.90;;;18.56;72.77;101582.88;5115944;28;20474;-84
2021/09/16 06:06:44;;;;;;;10.77;3.70;;;18.10;99.90;;;18.79;71.65;101585.84;5116083;28;20051;-83
2021/09/16 06:09:13;;;;;;;7.82;3.67;;;18.40;99.90;;;19.03;71.22;101588.81;5115740;28;20051;-84
2021/09/16 06:11:42;;;;;;;6.40;3.45;;;18.60;99.90;;;19.17;70.53;101591.97;5116423;28;20130;-83
2021/09/16 06:14:12;;;;;;;6.80;3.40;;;18.90;99.90;;;19.54;69.51;101587.34;5119086;28;20527;-82
2021/09/16 06:16:41;;;;;;;9.85;3.60;;;19.20;99.90;;;19.86;68.45;101606.03;5098035;28;20062;-81
2021/09/16 06:19:10;;;;;;;6.70;3.55;;;19.40;99.90;;;20.16;67.78;101601.50;5115835;28;20050;-83
2021/09/16 06:21:39;;;;;;;7.25;3.45;;;19.70;99.90;;;20.34;66.54;101606.34;5097631;28;20154;-83
2021/09/16 06:24:08;;;;;;;9.80;4.20;;;19.90;99.90;;;20.68;65.98;101609.66;5115691;28;20063;-82
2021/09/16 06:26:37;;;;;;;9.68;3.88;;;20.20;99.90;;;20.94;64.95;101616.81;5115331;28;20044;-81
2021/09/16 06:29:07;;;;;;;6.10;3.80;;;20.50;99.90;;;21.11;64.55;101609.94;5115476;28;20043;-75
2021/09/16 06:31:37;;;;;;;7.50;3.80;;;20.60;99.90;;;21.46;63.12;101611.34;5115514;28;20048;-81
2021/09/16 06:34:06;;;;;;;9.07;3.25;;;21.00;99.90;;;21.61;63.14;101617.94;5115262;28;20100;-79
2021/09/16 06:36:35;;;;;;;7.47;4.07;;;21.20;99.90;;;21.63;62.19;101616.97;5115258;28;20048;-79
2021/09/16 06:39:04;;;;;;;6.45;3.25;;;21.30;99.90;;;21.84;61.78;101620.69;5097192;28;20390;-80
2021/09/16 06:41:33;;;;;;;6.88;3.47;;;21.40;99.90;;;21.85;60.63;101614.38;5097191;28;20131;-79
2021/09/16 06:44:02;;;;;;;5.47;3.28;;;21.40;99.90;;;21.99;60.27;101587.78;5115342;28;20473;-80
2021/09/16 06:46:32;;;;;;;5.78;3.15;;;21.70;99.90;;;22.28;60.17;101620.66;5097038;28;20043;-80
2021/09/16 06:49:02;;;;;;;6.13;3.47;;;21.80;99.90;;;22.23;59.81;101621.81;5115214;28;20480;-76
2021/09/16 06:51:31;;;;;;;7.00;3.30;;;21.80;99.90;;;22.33;58.82;101629.47;5115360;28;20051;-79
2021/09/16 06:54:01;;;;;;;6.38;2.85;;;21.90;99.90;;;22.14;59.09;101627.56;5096892;28;20074;-77
2021/09/16 06:56:30;;;;;;;6.13;2.90;;;21.80;99.90;;;21.95;59.29;101596.91;5117593;28;20051;-80
2021/09/16 06:58:59;;;;;;;5.32;2.85;;;21.70;99.90;;;21.98;59.15;101627.31;5114899;28;20043;-79
2021/09/16 07:01:28;;;;;;;4.38;2.97;;;21.60;99.90;;;22.05;59.79;101622.53;5115066;28;20062;-81
2021/09/16 07:03:57;;;;;;;6.88;3.65;;;21.60;99.90;;;22.03;59.57;101625.28;5114781;28;20039;-78
2021/09/16 07:06:43;;;;;;;9.32;3.88;;;21.60;99.90;;;21.94;60.51;101622.97;5114805;28;20036;-77
2021/09/16 07:09:12;;;;;;;4.75;3.35;;;21.60;99.90;;;21.94;60.37;101635.56;5096255;28;20097;-77
2021/09/16 07:11:41;;;;;;;5.78;2.90;;;21.60;99.90;;;21.89;59.93;101616.00;5114507;28;20054;-78
2021/09/16 07:14:10;;;;;;;5.60;3.10;;;21.60;99.90;;;21.90;60.32;101631.22;5114689;28;20064;-77
2021/09/16 07:16:39;;;;;;;4.82;3.10;;;21.50;99.90;;;21.47;60.76;101632.81;5114594;28;20389;-79
2021/09/16 07:19:09;;;;;;;6.25;2.97;;;21.20;99.90;;;21.57;60.92;101636.03;5114275;28;20055;-78
2021/09/16 07:21:38;;;;;;;6.50;3.13;;;21.20;99.90;;;21.49;60.91;101608.53;5113800;28;20071;-78
2021/09/16 07:24:09;;;;;;;8.75;3.42;;;21.20;99.90;;;21.33;60.92;101631.59;5114359;28;20285;-78
2021/09/16 07:26:38;;;;;;;4.78;2.70;;;21.10;99.90;;;21.35;60.96;101640.50;5114365;28;20151;-78
2021/09/16 07:29:07;;;;;;;5.88;3.90;;;21.10;99.90;;;21.14;61.71;101639.41;5114828;28;20400;-78
2021/09/16 07:31:36;;;;;;;5.70;3.30;;;20.90;99.90;;;21.26;60.87;101636.31;5114898;28;20052;-78
2021/09/16 07:34:05;;;;;;;9.10;3.65;;;21.00;99.90;;;21.34;61.18;101644.09;5114242;28;20047;-78
2021/09/16 07:36:34;;;;;;;4.15;3.08;;;21.10;99.90;;;21.64;61.36;101645.63;5113875;28;20047;-78
2021/09/16 07:39:03;;;;;;;4.78;3.55;;;21.30;99.90;;;21.95;60.26;101643.56;5113998;28;20097;-77
2021/09/16 07:41:34;;;;;;;5.65;3.10;;;21.50;99.90;;;22.11;59.41;101620.47;5114223;28;20122;-81
2021/09/16 07:44:03;;;;;;;5.00;3.03;;;21.90;99.90;;;22.32;58.27;101653.78;5114197;28;20120;-78
2021/09/16 07:46:32;;;;;;;4.80;2.72;;;22.00;99.90;;;21.60;57.66;101557.84;5114236;28;20036;-77
2021/09/16 07:49:01;;;;;;;5.00;3.05;;;21.90;99.90;;;21.98;59.06;101653.34;5113899;28;20042;-78
2021/09/16 07:51:30;;;;;;;5.68;3.65;;;21.70;99.90;;;21.93;59.47;101644.59;5114148;28;20040;-78
2021/09/16 07:54:00;;;;;;;7.25;3.15;;;21.60;99.90;;;22.00;59.18;101652.38;5113842;28;20039;-75
2021/09/16 07:56:29;;;;;;;5.65;3.30;;;21.70;99.90;;;22.01;59.06;101647.88;5114089;28;20047;-77
2021/09/16 07:59:00;;;;;;;6.75;3.20;;;21.70;99.90;;;22.30;59.04;101651.16;5114397;28;20047;-78
2021/09/16 08:01:29;;;;;;;8.70;3.50;;;21.90;99.90;;;22.54;58.23;101649.28;5113997;28;20040;-77
2021/09/16 08:03:58;;;;;;;4.25;3.05;;;22.20;99.90;;;22.52;57.22;101644.88;5113723;28;20063;-77
2021/09/16 08:06:27;;;;;;;6.40;2.88;;;22.30;99.90;;;22.50;56.83;101647.66;5113701;28;20074;-77
2021/09/16 08:08:56;;;;;;;7.07;3.58;;;22.30;99.90;;;22.44;58.03;101653.28;5113985;28;20036;-77
2021/09/16 08:11:25;;;;;;;5.47;3.30;;;22.20;99.90;;;22.10;58.61;101644.81;5114132;28;20051;-77
2021/09/16 08:13:54;;;;;;;7.32;3.35;;;22.00;99.90;;;21.91;58.46;101666.19;5113578;28;20451;-77
2021/09/16 08:16:25;;;;;;;4.68;3.30;;;21.70;99.90;;;21.99;58.65;101672.16;5113866;28;20043;-77
2021/09/16 08:18:54;;;;;;;;;;;21.70;99.90;;;22.35;58.32;101665.34;5114247;28;20043;-77
2021/09/16 08:21:23;;;;;;;5.95;3.10;;;22.00;99.90;;;22.50;58.35;101665.63;5113499;28;19920;-77
2021/09/16 08:23:52;;;;;;;5.87;3.33;;;22.20;99.90;;;22.59;56.95;101671.56;5114054;28;20134;-77
2021/09/16 08:26:22;;;;;;;4.43;3.03;;;22.30;99.90;;;22.08;57.77;101658.34;5113408;28;20042;-77
2021/09/16 08:28:51;;;;;;;4.10;2.83;;;22.00;99.90;;;22.30;57.90;101683.50;5113415;28;20040;-77
2021/09/16 08:31:20;;;;;;;8.50;3.10;;;21.90;99.90;;;22.54;58.07;101672.66;5113734;28;20058;-77
2021/09/16 08:33:51;;;;;;;4.32;3.20;;;22.20;99.90;;;22.42;58.29;101680.31;5117158;28;20060;-77
2021/09/16 08:36:20;;;;;;;4.35;3.10;;;22.20;99.90;;;22.75;57.46;101675.38;5117448;28;20048;-77
2021/09/16 08:38:49;;;;;;;4.95;3.40;;;22.40;99.90;;;22.80;57.58;101681.47;5117410;28;20047;-76
2021/09/16 08:41:18;;;;;;;4.95;3.25;;;22.50;99.90;;;22.53;57.24;101700.59;5117770;28;20055;-77
2021/09/16 08:43:50;;;;;;;3.83;2.83;;;22.30;99.90;;;22.65;57.31;101689.34;5117514;28;20047;-77
2021/09/16 08:46:19;;;;;;;4.88;3.00;;;22.30;99.90;;;22.74;57.22;101679.03;5118255;28;20495;-77
2021/09/16 08:48:50;;;;;;;4.80;3.17;;;22.40;99.90;;;23.15;57.22;101683.53;5117807;28;20102;-77
2021/09/16 08:51:19;;;;;;;8.38;3.50;;;22.80;99.90;;;23.29;55.42;101686.53;5117428;28;20031;-77
2021/09/16 08:53:49;;;;;;;5.68;2.90;;;23.00;99.90;;;22.72;55.59;101694.41;5117329;28;20050;-77
2021/09/16 08:56:18;;;;;;;3.75;2.72;;;22.60;99.90;;;22.35;58.37;101694.13;5117537;28;20045;-76
2021/09/16 08:58:47;;;;;;;6.10;3.30;;;22.20;99.90;;;22.60;58.22;101691.31;5117788;28;20534;-77
2021/09/16 09:01:17;;;;;;;6.38;3.22;;;22.30;99.90;;;22.88;57.67;101687.41;5117391;28;20071;-76
2021/09/16 09:03:47;;;;;;;6.45;3.20;;;22.60;99.90;;;22.63;56.64;101685.81;5117255;28;20051;-77
2021/09/16 09:06:38;;;;;;;5.80;2.93;;;22.50;99.90;;;22.71;57.46;101687.25;5117412;28;20044;-77
2021/09/16 09:09:17;;;;;;;4.07;2.75;;;22.50;99.90;;;22.77;57.57;101696.91;5117419;28;20276;-76
2021/09/16 09:11:59;;;;;;;6.50;3.33;;;22.50;99.90;;;22.67;57.17;101699.09;5117190;28;20130;-76
2021/09/16 09:14:31;;;;;;;4.80;3.25;;;22.40;99.90;;;22.89;56.32;101699.09;5117002;28;20122;-77
2021/09/16 09:17:03;;;;;;;3.70;3.30;;;22.60;99.90;;;22.97;56.69;101686.16;5117181;28;20043;-77
2021/09/16 09:19:32;;;;;;;3.50;2.85;;;22.70;99.90;;;23.10;56.09;101693.69;5116887;28;20122;-77
2021/09/16 09:22:09;;;;;;;5.72;3.13;;;22.90;99.90;;;23.37;55.59;101696.13;5116717;28;20070;-77
2021/09/16 09:24:42;;;;;;;5.10;2.90;;;23.10;99.90;;;22.98;55.90;101693.31;5116801;28;20065;-76
2021/09/16 09:27:25;;;;;;;3.17;2.75;;;22.80;99.90;;;23.13;54.71;101661.13;5117113;28;20048;-77
2021/09/16 09:30:12;;;;;;;3.47;3.03;;;23.10;99.90;;;23.52;54.33;101701.75;5117200;28;20051;-76
2021/09/16 09:32:54;;;;;;;5.35;3.33;;;23.20;99.90;;;23.69;53.48;101704.56;5116572;28;20046;-77
2021/09/16 09:35:35;;;;;;;5.07;3.03;;;23.50;99.90;;;23.64;54.89;101609.34;5116546;28;20408;-76
2021/09/16 09:38:17;;;;;;;5.00;2.80;;;23.90;99.90;;;24.69;52.49;101706.09;5116472;28;20066;-77
2021/09/16 09:40:49;;;;;;;3.92;2.80;;;24.40;99.90;;;24.54;51.58;101705.97;5116665;28;20062;-77
2021/09/16 09:43:23;;;;;;;3.75;2.63;;;24.30;99.90;;;24.42;51.36;101706.56;5115926;28;20043;-77
2021/09/16 09:46:05;;;;;;;7.18;3.00;;;24.20;99.90;;;24.34;51.60;101716.88;5117106;28;20047;-77
2021/09/16 09:48:41;;;;;;;5.60;3.42;;;24.10;99.90;;;24.43;51.79;101716.47;5116575;28;20058;-77
2021/09/16 09:51:11;;;;;;;3.20;2.67;;;24.20;99.90;;;24.18;51.42;101714.91;5116329;28;20063;-77
2021/09/16 09:53:43;;;;;;;;;;;24.00;99.90;;;24.31;51.71;101719.75;5116498;28;20130;-77
2021/09/16 09:56:32;;;;;;;4.65;3.00;;;24.10;99.90;;;24.57;50.85;101727.47;5116111;28;19923;-77
2021/09/16 09:59:01;;;;;;;5.20;3.13;;;24.30;99.90;;;23.86;51.49;101711.91;5115947;28;20101;-77
2021/09/16 10:01:35;;;;;;;3.33;3.03;;;23.80;99.90;;;24.03;52.60;101714.75;5115832;28;20040;-77
2021/09/16 10:04:27;;;;;;;6.15;2.97;;;23.70;99.90;;;24.64;52.21;101721.69;5116436;28;20093;-77
2021/09/16 10:06:57;;;;;;;4.15;2.90;;;24.20;99.90;;;25.21;51.43;101717.03;5115788;28;20040;-77
2021/09/16 10:09:28;;;;;;;3.42;3.03;;;24.70;99.90;;;25.75;49.76;101720.47;5115863;28;20093;-76
2021/09/16 10:11:58;;;;;;;3.00;2.65;;;25.40;99.90;;;25.67;48.46;101713.69;5115828;28;20039;-77
2021/09/16 10:14:28;;;;;;;3.25;2.42;;;25.50;99.90;;;25.21;48.81;101682.72;5116072;28;20043;-77
2021/09/16 10:16:56;;;;;;;5.82;2.60;;;25.20;99.90;;;24.65;50.45;101706.31;5116051;28;20040;-77
2021/09/16 10:19:25;;;;;;;4.03;2.95;;;24.60;99.90;;;24.65;50.59;101688.28;5115928;28;20040;-77
2021/09/16 10:21:55;;;;;;;6.03;2.58;;;24.40;99.90;;;24.41;50.54;101702.13;5115834;28;20044;-77
2021/09/16 10:24:27;;;;;;;2.58;2.38;;;24.20;99.90;;;24.49;50.54;101710.72;5115805;28;20119;-77